SDM142 ULLI-ULAA
Flight info
| Callsign | SDM142 |
|---|---|
| Flight time | N/A |
| Altitude | 39000 |
| Route | RELNI1C RELNI T693 DISUP DCT MAKOG MAKOG3M |
| Aircraft | A20N/M-SDE2E3FGHIRWXY/LB1 |
Departure
| Time | N/A |
|---|---|
| Airport | Pulkovo Airport (ULLI) |
Arrival
| Time | 2026-04-24 19:25 |
|---|---|
| Airport | Talagi Airport (ULAA) |
| Time | Latitude | Longitude | Altitude | Speed | Heading |
|---|---|---|---|---|---|
| 2026-04-24 18:54 | 63.12320 | 36.67157 | 38502 ft | 474 kts | 44° |
| 2026-04-24 18:55 | 63.18917 | 36.83070 | 38502 ft | 476 kts | 44° |
| 2026-04-24 18:56 | 63.23325 | 36.93793 | 38504 ft | 476 kts | 44° |
| 2026-04-24 18:56 | 63.27747 | 37.04602 | 38492 ft | 477 kts | 45° |
| 2026-04-24 18:57 | 63.32160 | 37.15448 | 38492 ft | 477 kts | 45° |
| 2026-04-24 18:57 | 63.36569 | 37.26344 | 38489 ft | 477 kts | 45° |
| 2026-04-24 18:58 | 63.40955 | 37.37228 | 38493 ft | 477 kts | 45° |
| 2026-04-24 18:58 | 63.45345 | 37.48180 | 38496 ft | 478 kts | 45° |
| 2026-04-24 18:59 | 63.49720 | 37.59153 | 38495 ft | 478 kts | 45° |
| 2026-04-24 18:59 | 63.54095 | 37.70187 | 38494 ft | 478 kts | 46° |
| 2026-04-24 19:00 | 63.58407 | 37.81143 | 37929 ft | 467 kts | 46° |
| 2026-04-24 19:00 | 63.60502 | 37.86486 | 36949 ft | 457 kts | 46° |
| 2026-04-24 19:00 | 63.62557 | 37.91738 | 36058 ft | 446 kts | 45° |
| 2026-04-24 19:00 | 63.64533 | 37.96795 | 35492 ft | 428 kts | 45° |
| 2026-04-24 19:01 | 63.66457 | 38.01726 | 34538 ft | 423 kts | 45° |
| 2026-04-24 19:01 | 63.68370 | 38.06622 | 33000 ft | 433 kts | 44° |
| 2026-04-24 19:01 | 63.70327 | 38.11637 | 31561 ft | 441 kts | 44° |
| 2026-04-24 19:01 | 63.72325 | 38.16779 | 30527 ft | 432 kts | 44° |
| 2026-04-24 19:02 | 63.73580 | 38.20025 | 30257 ft | 414 kts | 44° |
| 2026-04-24 19:02 | 63.76047 | 38.26419 | 29867 ft | 404 kts | 44° |
| 2026-04-24 19:02 | 63.77884 | 38.31169 | 29440 ft | 401 kts | 44° |
| 2026-04-24 19:02 | 63.79672 | 38.35810 | 28989 ft | 397 kts | 44° |
| 2026-04-24 19:03 | 63.81479 | 38.40509 | 28500 ft | 396 kts | 44° |
| 2026-04-24 19:03 | 63.83271 | 38.45181 | 28034 ft | 394 kts | 44° |
| 2026-04-24 19:03 | 63.85049 | 38.49826 | 27559 ft | 393 kts | 44° |
| 2026-04-24 19:03 | 63.86810 | 38.54438 | 27063 ft | 392 kts | 44° |
| 2026-04-24 19:04 | 63.88575 | 38.59070 | 26558 ft | 391 kts | 45° |
| 2026-04-24 19:04 | 63.90346 | 38.63731 | 26049 ft | 390 kts | 45° |
| 2026-04-24 19:04 | 63.92106 | 38.68376 | 25544 ft | 388 kts | 46° |
| 2026-04-24 19:04 | 63.93848 | 38.72994 | 25029 ft | 387 kts | 46° |
| 2026-04-24 19:05 | 63.95586 | 38.77606 | 24508 ft | 386 kts | 46° |
| 2026-04-24 19:05 | 63.97322 | 38.82209 | 23966 ft | 384 kts | 46° |
| 2026-04-24 19:05 | 63.99058 | 38.86820 | 23390 ft | 382 kts | 46° |
| 2026-04-24 19:05 | 64.00748 | 38.91322 | 22859 ft | 379 kts | 47° |
| 2026-04-24 19:06 | 64.02459 | 38.95893 | 22344 ft | 375 kts | 47° |
| 2026-04-24 19:06 | 64.04134 | 39.00380 | 21862 ft | 370 kts | 47° |
| 2026-04-24 19:06 | 64.05695 | 39.04896 | 21395 ft | 367 kts | 53° |
| 2026-04-24 19:06 | 64.07037 | 39.09821 | 20911 ft | 365 kts | 60° |
| 2026-04-24 19:07 | 64.08172 | 39.14977 | 20411 ft | 362 kts | 63° |
| 2026-04-24 19:07 | 64.09240 | 39.20143 | 19934 ft | 359 kts | 64° |
| 2026-04-24 19:07 | 64.09940 | 39.23558 | 19614 ft | 357 kts | 64° |
| 2026-04-24 19:07 | 64.11333 | 39.30301 | 18950 ft | 352 kts | 64° |
| 2026-04-24 19:08 | 64.12364 | 39.35267 | 18484 ft | 349 kts | 64° |
| 2026-04-24 19:08 | 64.13393 | 39.40233 | 18027 ft | 345 kts | 64° |
| 2026-04-24 19:08 | 64.14410 | 39.45158 | 17581 ft | 341 kts | 64° |
| 2026-04-24 19:08 | 64.15424 | 39.50084 | 17137 ft | 338 kts | 64° |
| 2026-04-24 19:09 | 64.16418 | 39.54927 | 16699 ft | 335 kts | 64° |
| 2026-04-24 19:09 | 64.17396 | 39.59703 | 16271 ft | 333 kts | 64° |
| 2026-04-24 19:09 | 64.18362 | 39.64439 | 15852 ft | 330 kts | 64° |
| 2026-04-24 19:09 | 64.19327 | 39.69182 | 15434 ft | 327 kts | 65° |
| 2026-04-24 19:10 | 64.20277 | 39.73877 | 15036 ft | 325 kts | 65° |
| 2026-04-24 19:10 | 64.21221 | 39.78547 | 14624 ft | 322 kts | 66° |
| 2026-04-24 19:10 | 64.22161 | 39.83203 | 14212 ft | 320 kts | 66° |
| 2026-04-24 19:10 | 64.23080 | 39.87769 | 13837 ft | 317 kts | 65° |
| 2026-04-24 19:11 | 64.23999 | 39.92342 | 13446 ft | 315 kts | 65° |
| 2026-04-24 19:11 | 64.24907 | 39.96872 | 13062 ft | 313 kts | 65° |
| 2026-04-24 19:11 | 64.25806 | 40.01361 | 12674 ft | 311 kts | 65° |
| 2026-04-24 19:11 | 64.26701 | 40.05833 | 12282 ft | 309 kts | 65° |
| 2026-04-24 19:12 | 64.27586 | 40.10274 | 11899 ft | 306 kts | 65° |
| 2026-04-24 19:12 | 64.28475 | 40.14746 | 11521 ft | 305 kts | 65° |
| 2026-04-24 19:12 | 64.29343 | 40.19120 | 11144 ft | 302 kts | 65° |
| 2026-04-24 19:12 | 64.30218 | 40.23538 | 10761 ft | 300 kts | 65° |
| 2026-04-24 19:13 | 64.30794 | 40.26451 | 10514 ft | 299 kts | 65° |
| 2026-04-24 19:13 | 64.31918 | 40.32151 | 10031 ft | 296 kts | 64° |
| 2026-04-24 19:13 | 64.32763 | 40.36441 | 9661 ft | 294 kts | 64° |
| 2026-04-24 19:13 | 64.33604 | 40.40721 | 9377 ft | 289 kts | 64° |
| 2026-04-24 19:14 | 64.34431 | 40.44938 | 9041 ft | 285 kts | 64° |
| 2026-04-24 19:14 | 64.35239 | 40.49057 | 8698 ft | 283 kts | 64° |
| 2026-04-24 19:14 | 64.36042 | 40.53175 | 8356 ft | 280 kts | 63° |
| 2026-04-24 19:14 | 64.36835 | 40.57243 | 8015 ft | 277 kts | 63° |
| 2026-04-24 19:15 | 64.37608 | 40.61215 | 7692 ft | 275 kts | 63° |
| 2026-04-24 19:15 | 64.38386 | 40.65217 | 7356 ft | 273 kts | 64° |
| 2026-04-24 19:15 | 64.39159 | 40.69221 | 7010 ft | 270 kts | 64° |
| 2026-04-24 19:15 | 64.39920 | 40.73172 | 6698 ft | 267 kts | 64° |
| 2026-04-24 19:16 | 64.41412 | 40.80918 | 6061 ft | 263 kts | 63° |
| 2026-04-24 19:16 | 64.42145 | 40.84730 | 5735 ft | 262 kts | 63° |
| 2026-04-24 19:16 | 64.42876 | 40.88534 | 5413 ft | 260 kts | 63° |
| 2026-04-24 19:17 | 64.43613 | 40.92373 | 5098 ft | 259 kts | 63° |
| 2026-04-24 19:17 | 64.44333 | 40.96138 | 4782 ft | 257 kts | 63° |
| 2026-04-24 19:17 | 64.45050 | 40.99901 | 4458 ft | 256 kts | 63° |
| 2026-04-24 19:17 | 64.45761 | 41.03641 | 4143 ft | 254 kts | 63° |
| 2026-04-24 19:18 | 64.46465 | 41.07349 | 3830 ft | 253 kts | 63° |
| 2026-04-24 19:18 | 64.47194 | 41.11021 | 3505 ft | 250 kts | 56° |
| 2026-04-24 19:18 | 64.48381 | 41.13835 | 3166 ft | 240 kts | 26° |
| 2026-04-24 19:18 | 64.49916 | 41.14953 | 2869 ft | 232 kts | 5° |
| 2026-04-24 19:19 | 64.51511 | 41.15361 | 2569 ft | 230 kts | 3° |
| 2026-04-24 19:19 | 64.53076 | 41.15728 | 2274 ft | 230 kts | 3° |
| 2026-04-24 19:19 | 64.54728 | 41.16135 | 2170 ft | 242 kts | 3° |
| 2026-04-24 19:19 | 64.56379 | 41.15895 | 2140 ft | 235 kts | 337° |
| 2026-04-24 19:20 | 64.57613 | 41.13681 | 2143 ft | 220 kts | 304° |
| 2026-04-24 19:20 | 64.58119 | 41.10564 | 2142 ft | 196 kts | 282° |
| 2026-04-24 19:20 | 64.58318 | 41.07627 | 2141 ft | 176 kts | 279° |
| 2026-04-24 19:20 | 64.58456 | 41.04935 | 2228 ft | 158 kts | 279° |
| 2026-04-24 19:21 | 64.58565 | 41.02549 | 2163 ft | 138 kts | 279° |
| 2026-04-24 19:21 | 64.58656 | 41.00482 | 2125 ft | 121 kts | 280° |
| 2026-04-24 19:21 | 64.58744 | 40.98557 | 2142 ft | 119 kts | 280° |
| 2026-04-24 19:21 | 64.58833 | 40.96643 | 2015 ft | 119 kts | 280° |
| 2026-04-24 19:22 | 64.58893 | 40.95361 | 1912 ft | 119 kts | 280° |
| 2026-04-24 19:22 | 64.59011 | 40.92833 | 1708 ft | 118 kts | 280° |
| 2026-04-24 19:22 | 64.59101 | 40.90925 | 1535 ft | 118 kts | 279° |
| 2026-04-24 19:22 | 64.59190 | 40.89037 | 1365 ft | 117 kts | 279° |
| 2026-04-24 19:23 | 64.59278 | 40.87164 | 1197 ft | 117 kts | 279° |
| 2026-04-24 19:23 | 64.59367 | 40.85299 | 1047 ft | 117 kts | 278° |
| 2026-04-24 19:23 | 64.59457 | 40.83414 | 882 ft | 117 kts | 278° |
| 2026-04-24 19:23 | 64.59549 | 40.81551 | 705 ft | 117 kts | 278° |
| 2026-04-24 19:24 | 64.59630 | 40.79681 | 548 ft | 116 kts | 277° |
| 2026-04-24 19:24 | 64.59712 | 40.77814 | 388 ft | 116 kts | 278° |
| 2026-04-24 19:24 | 64.59804 | 40.75961 | 224 ft | 115 kts | 278° |
| 2026-04-24 19:24 | 64.59898 | 40.74134 | 73 ft | 113 kts | 277° |
| 2026-04-24 19:25 | 64.59985 | 40.72477 | 38 ft | 84 kts | 277° |
| 2026-04-24 19:25 | 64.60033 | 40.71508 | 38 ft | 34 kts | 277° |
| 2026-04-24 19:25 | 64.59982 | 40.71316 | 38 ft | 14 kts | 184° |
| 2026-04-24 19:25 | 64.59922 | 40.71302 | 38 ft | 0 kts | 187° |
| 2026-04-24 19:26 | 64.59913 | 40.71299 | 38 ft | 4 kts | 187° |
| 2026-04-24 19:26 | 64.59860 | 40.71285 | 38 ft | 10 kts | 186° |
| 2026-04-24 19:27 | 64.59781 | 40.71265 | 38 ft | 8 kts | 186° |
| 2026-04-24 19:27 | 64.59717 | 40.71240 | 38 ft | 8 kts | 190° |
| 2026-04-24 19:27 | 64.59687 | 40.71231 | 38 ft | 1 kts | 187° |
| 2026-04-24 19:27 | 64.59682 | 40.71230 | 38 ft | 1 kts | 187° |
| 2026-04-24 19:28 | 64.59678 | 40.71229 | 38 ft | 1 kts | 187° |
| 2026-04-24 19:28 | 64.59677 | 40.71228 | 38 ft | 0 kts | 187° |